Terminal Aerodrome Forecast
Issued by NWS Memphis, TN

Home | Current Version | Previous Version | Text Only | Print | Product List | Glossary On
Versions: 1 2 3 4 5 6 7 8 9 10 11 12 13 14 15 16 17 18
000
FTUS44 KMEG 192326
TAFJBR
TAF
KJBR 192326Z 2000/2024 05005KT P6SM SCT070 OVC100
     FM200500 04003KT P6SM BKN040 OVC100
      TEMPO 2010/2012 BKN025
     FM201600 06004KT P6SM FEW040=

USA.gov is the U.S. government's official web portal to all federal, state and local government web resources and services.